الصفحة الرئيسية
METAR-TAF:

METAR-TAF

مطار :

أوبورن, ألاباما, الولايات المتحدة

دائرة عرض: 32-37N, خط طول: 085-26W, ارتفاع: 236 متر

مراقبة الطقس الحالي

تاريخ ووقت الإصدار 1ساعة و 3 دقيقة قبل الساعة 00:56UTC
ريح 4 عقدة من الشرق/الشمال الشرقي
درجة الحرارة 8°درجة مئوية
الرطوبة 34%
ضغط 1025 hPa
الرؤية: 16.1 كم
سماء صافية

METAR: KAUO 230056Z AUTO 06004KT 10SM CLR 08/M07 A3027 RMK AO2 SLP276 T00781067

زمن: 19:59 (01:59 UTC)


TAF: مفقودة

أرصاد الطقس والتوقعات من أكثر من 4000 مطار (تقارير الطقس للمطار METAR والتنبؤ بالطقس بالمطارTAF).

المحطات المتاحة هي النقط الصفراء والحمراء على الخريطة.

حرك المؤشر فوق النقطة لمعرفة اسم المحطة.

ثم انقر لمعرفة أرصاد وتوقعات الطقس.

لتغيير الخارطة: اضغط على الأزرار الخضراء مع رمز الصليب الأسود للتكبير. على الزر الأخضر مع شرطة للتصغير، أو على الأسهم الخضراء للخرائط المجاورة.


METAR-TAF: